Huvudsida
METAR-TAF:

METAR-TAF

Flygplatser :

Wadi ad-Dawasir, Saudiarabien

latitud: 20-30N, longitud: 045-12E, höjd: 624 m

Aktuellt väderrapport

Denna rapport gjordes för 1 timme och 2 minuter sedan, klockan 18:00 UTC
Vind 10 kt från ost
Temperatur 23°C
Fuktighet 36%
Tryck 1016 hPa
Sikt: 8000 m

METAR: OEWD 281800Z 08010KT 8000 NSC 23/07 Q1016

Tid: 22:02 (19:02 UTC)

Väderprognos

Prognos gäller från 28 kl. 12 UTC till 29 kl. 18 UTC
Vind 12 kt från ost/sydost
Sikt: 7000 m
Temporärt
från 28 kl. 12 UTC till 28 kl. 18 UTC
Sikt: 4000 m
utbrett stoft

TAF: OEWD 2812/2918 12012KT 7000 NSC TEMPO 2812/2818 4000 DU

Aktuella väderrapporter och prognoser från 4000 flygplatser (METAR- och TAF-rapporter).

De tillgängliga stationerna syns som gula och röda prickar på kartan.

För musen över prickarna för att se namnen på stationerna.

Klicka sedan för att få väderrapporter och prognoser.

För att ändra kartan: Klicka på de gröna knapparna med ett svart kors på för att zooma in; den gröna knappen med ett streck på för att zooma ut; eller på de gröna pilarna för angränsande kartor.


METAR-TAF: